Time;durP1;ratioP1;P1;durP2;ratioP2;P2;SDS_P1;SDS_P2;PMS_P1;PMS_P2;Temp;Humidity;BMP_temperature;BMP_pressure;BME280_temperature;BME280_humidity;BME280_pressure;Samples;Min_cycle;Max_cycle;Signal;HPM_P1;HPM_P2
2023/12/21 00:02:16;;;;;;;10.00;2.30;;;;;;;0.13;100.00;97973.27;108961;1259;68803;-62
2023/12/21 00:05:05;;;;;;;8.60;2.20;;;;;;;0.12;100.00;97974.04;108799;1259;72615;-65
2023/12/21 00:07:53;;;;;;;7.90;2.50;;;;;;;0.13;100.00;97975.71;109033;1263;57474;-63
2023/12/21 00:10:41;;;;;;;12.20;2.70;;;;;;;0.13;100.00;97972.80;109102;1257;60402;-64
2023/12/21 00:13:29;;;;;;;11.20;2.80;;;;;;;0.13;100.00;97968.73;109072;1257;73251;-64
2023/12/21 00:16:17;;;;;;;7.40;2.20;;;;;;;0.15;100.00;97972.45;108246;1257;1002108;-63
2023/12/21 00:19:06;;;;;;;11.30;2.60;;;;;;;0.19;100.00;97973.42;108965;1262;71444;-63
2023/12/21 00:21:54;;;;;;;10.10;2.50;;;;;;;0.23;100.00;97961.77;109036;1258;57398;-63
2023/12/21 00:24:42;;;;;;;11.40;2.10;;;;;;;0.26;100.00;97955.48;109105;1257;60246;-62
2023/12/21 00:27:30;;;;;;;13.60;3.00;;;;;;;0.26;100.00;97950.40;109091;1258;72698;-62
2023/12/21 00:30:17;;;;;;;11.30;2.50;;;;;;;0.26;100.00;97943.28;109077;1257;69115;-62
2023/12/21 00:33:05;;;;;;;8.50;2.50;;;;;;;0.26;100.00;97947.60;109080;1259;72769;-62
2023/12/21 00:35:53;;;;;;;8.60;2.40;;;;;;;0.26;100.00;97947.95;109099;1259;58805;-62
2023/12/21 00:38:40;;;;;;;7.90;2.00;;;;;;;0.28;100.00;97950.47;109027;1257;60056;-65
2023/12/21 00:41:28;;;;;;;7.60;2.30;;;;;;;0.28;100.00;97947.34;108969;1258;72885;-63
2023/12/21 00:44:16;;;;;;;6.20;2.20;;;;;;;0.27;100.00;97940.44;109018;1258;67612;-62
2023/12/21 00:47:04;;;;;;;8.80;2.20;;;;;;;0.25;100.00;97939.52;109013;1259;71564;-62
2023/12/21 00:49:51;;;;;;;10.20;2.80;;;;;;;0.23;100.00;97933.20;108872;1261;59577;-63
2023/12/21 00:52:39;;;;;;;8.70;3.00;;;;;;;0.20;100.00;97931.47;108902;1260;59067;-64
2023/12/21 00:55:27;;;;;;;7.50;2.00;;;;;;;0.15;100.00;97924.01;108926;1261;73746;-64
2023/12/21 00:58:15;;;;;;;8.50;2.50;;;;;;;0.19;100.00;97926.67;108935;1261;67667;-64
2023/12/21 01:01:04;;;;;;;9.70;2.10;;;;;;;0.17;100.00;97918.93;108837;1263;72633;-64
2023/12/21 01:03:52;;;;;;;8.70;2.40;;;;;;;0.17;100.00;97918.44;108796;1261;57654;-65
2023/12/21 01:06:42;;;;;;;11.70;2.50;;;;;;;0.16;100.00;97922.87;108899;1260;60411;-63
2023/12/21 01:09:29;;;;;;;8.80;2.10;;;;;;;0.15;100.00;97919.63;108905;1263;73157;-64
2023/12/21 01:12:17;;;;;;;6.70;1.90;;;;;;;0.14;100.00;97921.43;108877;1261;66476;-63
2023/12/21 01:15:07;;;;;;;12.30;2.80;;;;;;;0.15;100.00;97920.45;108878;1261;71497;-63
2023/12/21 01:17:54;;;;;;;9.70;2.80;;;;;;;0.17;100.00;97913.21;108865;1260;59436;-61
2023/12/21 01:20:42;;;;;;;7.90;2.20;;;;;;;0.17;100.00;97909.53;108974;1258;58793;-62
2023/12/21 01:23:30;;;;;;;9.20;2.80;;;;;;;0.18;100.00;97903.89;109136;1259;73842;-63
2023/12/21 01:26:18;;;;;;;8.80;2.40;;;;;;;0.19;100.00;97905.73;108953;1263;66753;-62
2023/12/21 01:29:06;;;;;;;9.30;2.50;;;;;;;0.14;100.00;97893.02;109093;1260;71345;-62
2023/12/21 01:31:53;;;;;;;11.90;2.60;;;;;;;0.15;100.00;97890.16;108945;1259;57942;-64
2023/12/21 01:34:41;;;;;;;11.80;2.60;;;;;;;0.13;100.00;97892.50;109009;1259;58762;-62
2023/12/21 01:37:29;;;;;;;9.70;2.30;;;;;;;0.14;100.00;97890.77;108910;1257;73256;-62
2023/12/21 01:40:17;;;;;;;7.90;2.40;;;;;;;0.14;100.00;97886.39;109123;1257;68097;-62
2023/12/21 01:43:05;;;;;;;9.50;2.60;;;;;;;0.13;100.00;97879.63;109086;1260;71398;-63
2023/12/21 01:45:55;;;;;;;11.50;2.80;;;;;;;0.13;100.00;97879.83;109094;1257;57463;-63
2023/12/21 01:48:43;;;;;;;8.00;2.30;;;;;;;0.14;100.00;97878.69;109019;1260;61060;-65
2023/12/21 01:51:33;;;;;;;9.00;2.30;;;;;;;0.17;100.00;97881.11;109016;1258;74022;-63
2023/12/21 01:54:22;;;;;;;10.10;2.40;;;;;;;0.22;100.00;97876.05;109048;1260;67826;-63
2023/12/21 01:57:10;;;;;;;9.90;3.20;;;;;;;0.27;100.00;97864.33;109106;1257;72961;-63
2023/12/21 01:59:59;;;;;;;12.90;2.80;;;;;;;0.36;100.00;97858.88;109036;1257;58731;-63
2023/12/21 02:02:47;;;;;;;9.70;2.30;;;;;;;0.43;100.00;97854.53;109137;1259;59967;-62
2023/12/21 02:05:35;;;;;;;9.90;2.70;;;;;;;0.49;100.00;97846.40;109057;1259;71854;-63
2023/12/21 02:08:23;;;;;;;13.00;3.30;;;;;;;0.53;100.00;97850.84;109069;1258;67896;-62
2023/12/21 02:11:11;;;;;;;9.40;2.60;;;;;;;0.55;100.00;97853.29;108977;1259;71356;-62
2023/12/21 02:13:58;;;;;;;8.20;2.60;;;;;;;0.57;100.00;97847.23;109043;1258;59944;-65
2023/12/21 02:16:57;;;;;;;10.50;2.90;;;;;;;0.54;100.00;97840.09;109037;1259;60445;-65
2023/12/21 02:19:45;;;;;;;10.70;2.70;;;;;;;0.60;100.00;97841.28;109047;1260;72850;-62
2023/12/21 02:22:37;;;;;;;9.90;2.70;;;;;;;0.61;100.00;97840.27;109029;1260;67591;-63
2023/12/21 02:25:26;;;;;;;11.30;3.60;;;;;;;0.63;100.00;97840.18;109008;1259;71603;-61
2023/12/21 02:28:14;;;;;;;13.60;2.90;;;;;;;0.63;100.00;97838.11;109000;1260;58045;-63
2023/12/21 02:31:02;;;;;;;10.80;2.50;;;;;;;0.63;100.00;97835.48;109125;1260;58967;-62
2023/12/21 02:33:50;;;;;;;10.10;3.20;;;;;;;0.62;100.00;97826.11;109096;1261;73900;-62
2023/12/21 02:36:39;;;;;;;8.40;2.30;;;;;;;0.62;100.00;97815.10;109102;1258;66589;-63
2023/12/21 02:39:27;;;;;;;12.20;2.80;;;;;;;0.63;100.00;97814.86;109004;1257;73766;-63
2023/12/21 02:42:15;;;;;;;9.80;2.70;;;;;;;0.65;100.00;97814.89;109008;1259;58600;-62
2023/12/21 02:45:03;;;;;;;10.10;2.50;;;;;;;0.66;100.00;97809.69;109053;1259;61355;-62
2023/12/21 02:47:51;;;;;;;8.40;3.00;;;;;;;0.68;100.00;97809.76;109038;1257;72248;-62
2023/12/21 02:50:39;;;;;;;10.80;2.30;;;;;;;0.70;100.00;97812.98;109024;1257;68079;-63
2023/12/21 02:53:27;;;;;;;10.20;2.60;;;;;;;0.70;100.00;97814.69;109104;1257;73869;-64
2023/12/21 02:56:15;;;;;;;8.10;2.60;;;;;;;0.72;100.00;97809.37;109107;1260;58619;-64
2023/12/21 02:59:03;;;;;;;10.00;2.50;;;;;;;0.71;100.00;97801.55;109097;1261;60364;-63
2023/12/21 03:01:51;;;;;;;7.30;2.00;;;;;;;0.62;100.00;97792.96;109021;1257;73033;-65
2023/12/21 03:04:40;;;;;;;9.60;3.00;;;;;;;0.56;100.00;97783.30;109149;1257;68845;-64
2023/12/21 03:07:28;;;;;;;9.90;2.80;;;;;;;0.49;100.00;97779.95;109045;1261;71834;-62
2023/12/21 03:10:16;;;;;;;9.30;2.90;;;;;;;0.44;100.00;97774.19;109100;1257;58526;-64
2023/12/21 03:13:04;;;;;;;8.10;2.50;;;;;;;0.43;100.00;97762.92;108995;1259;59476;-64
2023/12/21 03:15:53;;;;;;;9.30;2.60;;;;;;;0.39;100.00;97758.30;109127;1261;73685;-62
2023/12/21 03:18:41;;;;;;;8.20;2.40;;;;;;;0.38;100.00;97750.92;109022;1258;67930;-69
2023/12/21 03:21:29;;;;;;;9.00;2.70;;;;;;;0.36;100.00;97743.91;109016;1257;73887;-63
2023/12/21 03:24:16;;;;;;;8.80;2.80;;;;;;;0.34;100.00;97736.85;109082;1259;58696;-66
2023/12/21 03:27:04;;;;;;;7.20;2.60;;;;;;;0.33;100.00;97734.64;108898;1260;59062;-64
2023/12/21 03:29:52;;;;;;;10.50;2.30;;;;;;;0.34;100.00;97735.63;108974;1261;72797;-62
2023/12/21 03:32:42;;;;;;;9.20;2.40;;;;;;;0.36;100.00;97728.38;108938;1265;67821;-63
2023/12/21 03:35:31;;;;;;;9.30;2.70;;;;;;;0.37;100.00;97722.37;108904;1261;71673;-64
2023/12/21 03:38:25;;;;;;;7.20;2.20;;;;;;;0.35;100.00;97713.77;108874;1260;57486;-63
2023/12/21 03:41:15;;;;;;;9.80;2.70;;;;;;;0.33;100.00;97712.48;108764;1260;62125;-63
2023/12/21 03:44:03;;;;;;;8.70;3.10;;;;;;;0.32;100.00;97705.40;108885;1261;70520;-64
2023/12/21 03:46:51;;;;;;;9.40;2.50;;;;;;;0.31;100.00;97703.02;108834;1260;67771;-64
2023/12/21 03:49:42;;;;;;;7.50;2.30;;;;;;;0.27;100.00;97692.02;108908;1260;70425;-65
2023/12/21 03:52:30;;;;;;;8.80;2.40;;;;;;;0.29;100.00;97700.73;108883;1263;59723;-67
2023/12/21 03:55:18;;;;;;;8.80;2.40;;;;;;;0.29;100.00;97690.48;108942;1260;61349;-65
2023/12/21 03:58:05;;;;;;;7.90;2.90;;;;;;;0.28;100.00;97688.25;108934;1257;73032;-64
2023/12/21 04:00:53;;;;;;;10.30;3.00;;;;;;;0.29;100.00;97678.59;109026;1258;66317;-64
2023/12/21 04:03:41;;;;;;;9.60;2.70;;;;;;;0.31;100.00;97678.29;108953;1263;71513;-64
2023/12/21 04:06:29;;;;;;;10.90;3.00;;;;;;;0.36;100.00;97674.65;108767;1258;207905;-64
2023/12/21 04:09:16;;;;;;;10.60;3.30;;;;;;;0.39;100.00;97669.15;108966;1263;61174;-65
2023/12/21 04:12:06;;;;;;;7.10;2.60;;;;;;;0.44;100.00;97663.02;109025;1259;73447;-62
2023/12/21 04:14:53;;;;;;;10.10;3.30;;;;;;;0.48;100.00;97660.83;109079;1257;68005;-61
2023/12/21 04:17:41;;;;;;;8.80;2.90;;;;;;;0.53;100.00;97654.16;109005;1261;72374;-63
2023/12/21 04:20:29;;;;;;;10.50;4.10;;;;;;;0.58;100.00;97649.08;109102;1258;58874;-62
2023/12/21 04:23:16;;;;;;;10.40;3.10;;;;;;;0.63;100.00;97636.66;109029;1261;60069;-66
2023/12/21 04:26:04;;;;;;;7.80;2.60;;;;;;;0.70;100.00;97635.83;109270;1261;71425;-63
2023/12/21 04:28:52;;;;;;;9.00;3.10;;;;;;;0.76;100.00;97633.81;109388;1257;66520;-63
2023/12/21 04:31:44;;;;;;;9.10;3.10;;;;;;;0.81;100.00;97627.96;109123;1260;72697;-63
2023/12/21 04:34:32;;;;;;;10.00;3.00;;;;;;;0.86;100.00;97624.10;109128;1258;57335;-62
2023/12/21 04:37:20;;;;;;;9.70;3.30;;;;;;;0.91;100.00;97622.54;109001;1260;60152;-63
2023/12/21 04:40:09;;;;;;;8.70;2.50;;;;;;;0.94;100.00;97615.64;109036;1260;72763;-63
2023/12/21 04:42:57;;;;;;;10.10;2.90;;;;;;;0.96;100.00;97618.42;109046;1257;67878;-64
2023/12/21 04:45:45;;;;;;;7.90;2.40;;;;;;;0.98;100.00;97614.08;109103;1258;72651;-63
2023/12/21 04:48:33;;;;;;;8.60;3.30;;;;;;;1.01;100.00;97611.59;109003;1257;57413;-63
2023/12/21 04:51:21;;;;;;;8.70;2.70;;;;;;;1.04;100.00;97605.33;109037;1257;60306;-62
2023/12/21 04:54:09;;;;;;;9.00;2.50;;;;;;;1.03;100.00;97598.56;108304;1257;1002136;-62
2023/12/21 04:56:57;;;;;;;9.50;3.10;;;;;;;1.05;100.00;97592.98;109121;1257;66598;-63
2023/12/21 04:59:45;;;;;;;8.30;2.40;;;;;;;1.05;100.00;97592.41;109043;1258;72480;-62
2023/12/21 05:02:34;;;;;;;9.10;2.60;;;;;;;1.07;100.00;97588.64;109017;1257;57880;-62
2023/12/21 05:05:21;;;;;;;6.20;2.10;;;;;;;1.08;100.00;97586.79;108891;1258;58769;-67
2023/12/21 05:08:09;;;;;;;7.10;2.50;;;;;;;1.10;100.00;97579.65;109019;1257;72016;-63
2023/12/21 05:10:57;;;;;;;8.10;2.30;;;;;;;1.10;100.00;97571.45;109096;1257;66694;-64
2023/12/21 05:13:45;;;;;;;8.50;2.10;;;;;;;1.11;100.00;97567.71;108983;1257;73879;-63
2023/12/21 05:16:32;;;;;;;6.60;2.50;;;;;;;1.11;100.00;97565.77;109145;1258;58505;-65
2023/12/21 05:19:21;;;;;;;5.90;2.00;;;;;;;1.13;100.00;97557.09;109135;1257;61506;-63
2023/12/21 05:22:09;;;;;;;6.70;2.40;;;;;;;1.16;100.00;97551.23;109033;1257;72093;-64
2023/12/21 05:24:56;;;;;;;8.30;2.50;;;;;;;1.19;100.00;97551.50;109124;1257;67707;-65
2023/12/21 05:27:45;;;;;;;7.20;1.80;;;;;;;1.21;100.00;97541.41;108856;1257;71019;-64
2023/12/21 05:30:33;;;;;;;8.30;2.00;;;;;;;1.21;100.00;97533.03;109081;1257;58820;-63
2023/12/21 05:33:21;;;;;;;7.20;2.10;;;;;;;1.22;100.00;97530.00;108955;1257;60566;-64
2023/12/21 05:36:22;;;;;;;7.10;2.20;;;;;;;1.26;100.00;97537.33;109161;1257;73141;-65
2023/12/21 05:39:10;;;;;;;6.80;2.50;;;;;;;1.31;100.00;97532.10;109054;1257;67690;-64
2023/12/21 05:42:05;;;;;;;7.10;2.70;;;;;;;1.34;100.00;97519.89;109158;1257;72801;-63
2023/12/21 05:44:53;;;;;;;7.20;2.70;;;;;;;1.36;100.00;97515.22;108963;1258;60030;-66
2023/12/21 05:47:40;;;;;;;6.90;2.20;;;;;;;1.40;100.00;97506.58;109081;1257;59009;-64
2023/12/21 05:50:28;;;;;;;7.00;2.50;;;;;;;1.43;100.00;97506.81;109018;1257;73616;-65
2023/12/21 05:53:16;;;;;;;8.50;2.60;;;;;;;1.45;100.00;97493.91;109104;1257;66798;-67
2023/12/21 05:56:05;;;;;;;6.30;2.20;;;;;;;1.47;100.00;97494.05;108986;1257;72464;-64
2023/12/21 05:58:53;;;;;;;7.00;2.50;;;;;;;1.50;100.00;97488.94;109092;1257;58442;-64
2023/12/21 06:01:42;;;;;;;6.90;2.60;;;;;;;1.51;100.00;97480.64;109061;1258;60082;-66
2023/12/21 06:04:30;;;;;;;6.40;2.70;;;;;;;1.51;100.00;97472.46;109069;1257;74033;-64
2023/12/21 06:07:19;;;;;;;6.10;2.50;;;;;;;1.50;100.00;97463.11;109007;1257;67912;-65
2023/12/21 06:10:08;;;;;;;7.10;2.60;;;;;;;1.50;100.00;97454.50;108983;1257;72647;-64
2023/12/21 06:12:56;;;;;;;7.30;2.60;;;;;;;1.49;100.00;97452.83;108900;1257;58434;-65
2023/12/21 06:15:44;;;;;;;8.80;3.00;;;;;;;1.50;100.00;97441.41;109150;1257;59211;-64
2023/12/21 06:18:31;;;;;;;6.70;2.60;;;;;;;1.50;100.00;97434.88;109049;1257;71485;-64
2023/12/21 06:21:20;;;;;;;7.60;2.60;;;;;;;1.50;100.00;97427.79;108980;1257;67975;-65
2023/12/21 06:24:08;;;;;;;6.80;2.70;;;;;;;1.51;100.00;97423.19;108967;1257;71752;-65
2023/12/21 06:26:56;;;;;;;9.40;3.20;;;;;;;1.53;100.00;97426.27;108998;1257;59718;-65
2023/12/21 06:29:44;;;;;;;9.20;2.90;;;;;;;1.54;100.00;97419.40;109035;1257;60031;-63
2023/12/21 06:32:32;;;;;;;7.70;2.70;;;;;;;1.54;100.00;97411.92;108896;1257;71929;-64
2023/12/21 06:35:20;;;;;;;8.80;3.20;;;;;;;1.51;100.00;97409.17;109013;1257;67964;-65
2023/12/21 06:38:07;;;;;;;9.10;2.90;;;;;;;1.52;100.00;97414.35;108977;1257;72385;-66
2023/12/21 06:40:55;;;;;;;8.10;3.10;;;;;;;1.52;100.00;97407.85;108996;1257;58749;-67
2023/12/21 06:43:43;;;;;;;8.20;2.90;;;;;;;1.57;100.00;97409.25;109039;1257;60339;-67
2023/12/21 06:46:31;;;;;;;7.10;2.30;;;;;;;1.58;100.00;97405.48;109113;1257;73129;-64
2023/12/21 06:49:19;;;;;;;6.80;2.70;;;;;;;1.59;100.00;97398.23;109082;1257;66223;-67
2023/12/21 06:52:07;;;;;;;8.00;3.00;;;;;;;1.59;100.00;97389.27;108955;1257;72588;-66
2023/12/21 06:54:54;;;;;;;8.10;2.50;;;;;;;1.61;100.00;97379.69;108945;1257;57422;-70
2023/12/21 06:57:43;;;;;;;6.40;2.20;;;;;;;1.62;100.00;97376.60;109117;1257;59045;-65
2023/12/21 07:00:30;;;;;;;6.80;2.40;;;;;;;1.63;100.00;97369.91;108193;1258;1002449;-67
2023/12/21 07:03:18;;;;;;;7.30;2.60;;;;;;;1.64;100.00;97367.06;109030;1257;68373;-65
2023/12/21 07:06:10;;;;;;;7.50;2.30;;;;;;;1.66;100.00;97359.02;108931;1259;72621;-64
2023/12/21 07:08:57;;;;;;;8.00;2.60;;;;;;;1.68;100.00;97353.01;109036;1257;58506;-65
2023/12/21 07:11:45;;;;;;;7.40;2.50;;;;;;;1.72;100.00;97348.21;109219;1257;60127;-67
2023/12/21 07:14:39;;;;;;;7.90;2.30;;;;;;;1.74;100.00;97342.58;109403;1257;71702;-67
2023/12/21 07:17:29;;;;;;;6.50;2.40;;;;;;;1.78;100.00;97336.69;109118;1257;67767;-65
2023/12/21 07:20:21;;;;;;;7.60;2.30;;;;;;;1.77;100.00;97328.86;109360;1257;71407;-71
2023/12/21 07:23:09;;;;;;;6.80;2.10;;;;;;;1.82;100.00;97327.05;109058;1257;57463;-68
2023/12/21 07:25:57;;;;;;;7.30;2.30;;;;;;;1.83;100.00;97319.98;109095;1258;59976;-66
2023/12/21 07:28:44;;;;;;;9.70;2.20;;;;;;;1.84;100.00;97311.17;109190;1257;73839;-65
2023/12/21 07:31:32;;;;;;;8.90;1.90;;;;;;;1.82;100.00;97305.58;109218;1256;67975;-66
2023/12/21 07:34:20;;;;;;;6.50;2.30;;;;;;;1.83;100.00;97300.77;108873;1257;71585;-66
2023/12/21 07:37:09;;;;;;;7.70;2.50;;;;;;;1.84;100.00;97292.43;109180;1257;57446;-64
2023/12/21 07:39:57;;;;;;;6.60;2.20;;;;;;;1.86;100.00;97283.66;109100;1257;62003;-64
2023/12/21 07:42:46;;;;;;;5.80;1.80;;;;;;;1.88;100.00;97280.57;109015;1257;73994;-66
2023/12/21 07:45:34;;;;;;;7.70;2.20;;;;;;;1.85;100.00;97274.39;109204;1257;68836;-63
2023/12/21 07:48:22;;;;;;;7.50;2.50;;;;;;;1.91;100.00;97272.64;109063;1261;73926;-63
2023/12/21 07:51:10;;;;;;;7.40;2.70;;;;;;;1.96;100.00;97266.05;109058;1257;58536;-65
2023/12/21 07:53:59;;;;;;;7.90;2.30;;;;;;;1.96;100.00;97258.35;109181;1257;60257;-64
2023/12/21 07:56:47;;;;;;;7.60;2.10;;;;;;;1.96;100.00;97244.18;109105;1257;71805;-64
2023/12/21 07:59:35;;;;;;;7.00;2.00;;;;;;;1.95;100.00;97234.69;109096;1257;66869;-64
2023/12/21 08:02:23;;;;;;;6.20;2.20;;;;;;;1.95;100.00;97222.36;109069;1257;73674;-65
2023/12/21 08:05:13;;;;;;;6.30;2.50;;;;;;;1.97;100.00;97223.11;108918;1263;58740;-66
2023/12/21 08:08:01;;;;;;;9.10;2.80;;;;;;;1.99;100.00;97225.35;106773;1257;1002865;-64
2023/12/21 08:10:49;;;;;;;6.80;2.10;;;;;;;2.01;100.00;97220.15;109209;1257;72217;-64
2023/12/21 08:13:36;;;;;;;7.90;2.10;;;;;;;2.01;100.00;97213.48;109100;1257;68870;-65
2023/12/21 08:16:24;;;;;;;6.00;2.00;;;;;;;1.99;100.00;97197.96;109205;1257;71441;-64
2023/12/21 08:19:12;;;;;;;6.00;1.90;;;;;;;1.98;100.00;97189.46;109130;1257;57320;-64
2023/12/21 08:22:00;;;;;;;6.20;2.20;;;;;;;1.96;100.00;97189.78;108434;1257;1002727;-62
2023/12/21 08:24:51;;;;;;;7.30;2.40;;;;;;;1.94;100.00;97179.64;109201;1257;71071;-65
2023/12/21 08:27:42;;;;;;;7.50;2.20;;;;;;;1.94;100.00;97167.22;109064;1257;67694;-64
2023/12/21 08:30:29;;;;;;;6.80;2.50;;;;;;;1.92;100.00;97164.96;109114;1257;71418;-65
2023/12/21 08:33:18;;;;;;;5.70;2.20;;;;;;;1.92;100.00;97158.86;109075;1257;58550;-64
2023/12/21 08:36:07;;;;;;;7.00;2.40;;;;;;;1.89;100.00;97159.33;109019;1257;60345;-66
2023/12/21 08:38:54;;;;;;;7.00;2.20;;;;;;;1.81;100.00;97148.82;109138;1257;72975;-66
2023/12/21 08:41:42;;;;;;;6.50;2.40;;;;;;;1.86;100.00;97142.23;109108;1257;68623;-66
2023/12/21 08:44:29;;;;;;;6.60;2.30;;;;;;;1.88;100.00;97136.48;109075;1257;71417;-65
2023/12/21 08:47:21;;;;;;;7.60;2.70;;;;;;;1.89;100.00;97130.64;109110;1257;57437;-66
2023/12/21 08:50:10;;;;;;;8.20;2.60;;;;;;;1.91;100.00;97124.90;108991;1257;59550;-67
2023/12/21 08:53:00;;;;;;;7.00;2.20;;;;;;;1.91;100.00;97119.27;108996;1257;73026;-64
2023/12/21 08:55:48;;;;;;;5.90;1.90;;;;;;;1.92;100.00;97111.98;109215;1257;68244;-64
2023/12/21 08:58:36;;;;;;;6.10;2.00;;;;;;;1.91;100.00;97107.05;109195;1257;71635;-67
2023/12/21 09:01:24;;;;;;;6.00;2.10;;;;;;;1.93;100.00;97098.41;109097;1257;58350;-64
2023/12/21 09:04:13;;;;;;;6.50;2.30;;;;;;;1.95;100.00;97094.23;109122;1257;60301;-65
2023/12/21 09:07:01;;;;;;;5.70;1.80;;;;;;;1.96;100.00;97081.54;108845;1257;71567;-65
2023/12/21 09:09:49;;;;;;;6.60;2.30;;;;;;;1.94;100.00;97070.58;109062;1257;66755;-66
2023/12/21 09:12:37;;;;;;;5.70;2.10;;;;;;;1.93;100.00;97069.92;109081;1257;72775;-66
2023/12/21 09:15:28;;;;;;;5.90;2.10;;;;;;;1.93;100.00;97061.06;108988;1257;58886;-63
2023/12/21 09:18:16;;;;;;;6.00;2.30;;;;;;;1.89;100.00;97046.17;109015;1257;61050;-63
2023/12/21 09:21:05;;;;;;;6.10;2.40;;;;;;;1.93;100.00;97032.04;109017;1257;73888;-67
2023/12/21 09:23:53;;;;;;;6.10;2.00;;;;;;;1.94;100.00;97016.70;109219;1257;66570;-66
2023/12/21 09:26:40;;;;;;;6.40;2.20;;;;;;;1.95;100.00;97009.41;108856;1260;72804;-64
2023/12/21 09:29:30;;;;;;;6.40;2.50;;;;;;;1.97;100.00;96990.85;109078;1257;58520;-66
2023/12/21 09:32:17;;;;;;;7.70;2.80;;;;;;;1.99;100.00;96981.65;109233;1256;60039;-64
2023/12/21 09:35:07;;;;;;;7.10;2.70;;;;;;;2.07;100.00;96966.02;109137;1257;72823;-62
2023/12/21 09:37:57;;;;;;;6.40;2.40;;;;;;;2.12;100.00;96952.98;109197;1257;67610;-67
2023/12/21 09:40:46;;;;;;;6.50;2.60;;;;;;;2.14;100.00;96942.30;109156;1257;74014;-64
2023/12/21 09:43:37;;;;;;;7.60;2.70;;;;;;;2.11;100.00;96931.89;109078;1256;57312;-65
2023/12/21 09:46:28;;;;;;;7.10;2.90;;;;;;;2.08;100.00;96911.55;109073;1257;58933;-65
2023/12/21 09:49:17;;;;;;;6.70;2.40;;;;;;;2.09;100.00;96902.34;109038;1257;73323;-64
2023/12/21 09:52:08;;;;;;;6.60;2.40;;;;;;;2.07;100.00;96894.70;109133;1257;66649;-67
2023/12/21 09:54:57;;;;;;;5.70;2.00;;;;;;;2.10;100.00;96886.21;108991;1257;72306;-64
2023/12/21 09:57:46;;;;;;;6.70;2.60;;;;;;;2.11;100.00;96876.45;108994;1257;57805;-63
2023/12/21 10:00:36;;;;;;;6.70;2.40;;;;;;;2.11;100.00;96868.54;109194;1257;59207;-64
2023/12/21 10:03:24;;;;;;;8.40;2.60;;;;;;;2.12;100.00;96855.52;109179;1257;72970;-65
2023/12/21 10:06:12;;;;;;;6.70;2.80;;;;;;;2.05;100.00;96852.18;109351;1257;67662;-68
2023/12/21 10:09:03;;;;;;;7.90;2.90;;;;;;;2.08;100.00;96850.55;109035;1257;72561;-64
2023/12/21 10:11:51;;;;;;;7.40;3.00;;;;;;;2.10;100.00;96849.80;108986;1257;58830;-64
2023/12/21 10:14:39;;;;;;;6.80;2.30;;;;;;;2.11;100.00;96836.02;109000;1257;60093;-63
2023/12/21 10:17:27;;;;;;;7.50;2.80;;;;;;;2.11;100.00;96832.04;109091;1257;73098;-63
2023/12/21 10:20:15;;;;;;;6.90;2.90;;;;;;;2.15;100.00;96829.02;109102;1257;66716;-63
2023/12/21 10:23:03;;;;;;;7.90;3.00;;;;;;;2.13;100.00;96818.16;109097;1259;73611;-63
2023/12/21 10:25:56;;;;;;;7.80;3.30;;;;;;;2.12;100.00;96807.59;109082;1257;58825;-62
2023/12/21 10:28:47;;;;;;;6.80;2.50;;;;;;;2.13;100.00;96782.83;109028;1257;60041;-63
2023/12/21 10:31:34;;;;;;;7.40;2.90;;;;;;;2.14;100.00;96777.55;109031;1257;73157;-62
2023/12/21 10:34:23;;;;;;;7.10;2.60;;;;;;;2.16;100.00;96759.98;108967;1257;67999;-65
2023/12/21 10:37:11;;;;;;;6.80;2.90;;;;;;;2.16;100.00;96751.45;109042;1257;72733;-66
2023/12/21 10:39:59;;;;;;;8.10;3.30;;;;;;;2.16;100.00;96730.85;109026;1257;57432;-61
2023/12/21 10:42:47;;;;;;;6.60;2.90;;;;;;;2.16;100.00;96717.98;108993;1257;61319;-64
2023/12/21 10:45:36;;;;;;;8.30;3.40;;;;;;;2.20;100.00;96711.70;109058;1257;73997;-63
2023/12/21 10:48:28;;;;;;;7.30;3.30;;;;;;;2.27;100.00;96689.50;108960;1260;67876;-63
2023/12/21 10:51:18;;;;;;;9.90;3.80;;;;;;;2.34;100.00;96675.14;109102;1257;72822;-63
2023/12/21 10:54:12;;;;;;;7.70;3.90;;;;;;;2.39;100.00;96657.05;109095;1257;58455;-65
2023/12/21 10:57:00;;;;;;;7.10;2.80;;;;;;;2.43;100.00;96644.45;109035;1257;60008;-62
2023/12/21 10:59:49;;;;;;;7.30;3.00;;;;;;;2.45;100.00;96629.13;109128;1257;71791;-63
2023/12/21 11:02:37;;;;;;;8.80;3.60;;;;;;;2.45;100.00;96612.36;108260;1260;1002495;-63
2023/12/21 11:05:27;;;;;;;6.60;2.90;;;;;;;2.48;100.00;96602.04;109068;1257;72850;-61
2023/12/21 11:08:16;;;;;;;8.10;3.30;;;;;;;2.51;100.00;96591.61;109062;1257;59488;-64
2023/12/21 11:11:05;;;;;;;7.30;3.10;;;;;;;2.48;100.00;96575.46;107528;1257;1003056;-65
2023/12/21 11:13:55;;;;;;;7.60;3.40;;;;;;;2.49;100.00;96560.69;109224;1257;73100;-64
2023/12/21 11:16:52;;;;;;;7.00;3.00;;;;;;;2.49;100.00;96547.16;109054;1257;66713;-63
2023/12/21 11:19:41;;;;;;;7.20;3.10;;;;;;;2.47;100.00;96534.11;109088;1257;72755;-63
2023/12/21 11:22:30;;;;;;;7.50;3.80;;;;;;;2.46;100.00;96523.91;109194;1256;58744;-65
2023/12/21 11:25:22;;;;;;;8.30;3.70;;;;;;;2.43;100.00;96511.63;109035;1257;60082;-63
2023/12/21 11:28:11;;;;;;;7.10;2.80;;;;;;;2.43;100.00;96501.30;109189;1257;72995;-63
2023/12/21 11:30:59;;;;;;;8.10;3.60;;;;;;;2.40;100.00;96492.52;109125;1257;66344;-62
2023/12/21 11:33:47;;;;;;;7.90;4.10;;;;;;;2.37;100.00;96479.31;109071;1257;72922;-61
2023/12/21 11:36:35;;;;;;;8.50;3.70;;;;;;;2.35;100.00;96459.02;109130;1257;57317;-61
2023/12/21 11:39:24;;;;;;;8.70;3.80;;;;;;;2.35;100.00;96449.25;109100;1257;59253;-64
2023/12/21 11:42:12;;;;;;;9.40;4.40;;;;;;;2.33;100.00;96437.50;109117;1257;73227;-61
2023/12/21 11:45:03;;;;;;;8.60;4.30;;;;;;;2.34;100.00;96427.44;109134;1257;67622;-62
2023/12/21 11:47:56;;;;;;;8.90;3.90;;;;;;;2.35;100.00;96409.17;109029;1256;72109;-62
2023/12/21 11:50:45;;;;;;;8.70;4.00;;;;;;;2.34;100.00;96393.86;109169;1257;58735;-62
2023/12/21 11:53:39;;;;;;;9.50;3.50;;;;;;;2.34;100.00;96388.92;108979;1256;60977;-67
2023/12/21 11:56:34;;;;;;;8.40;3.50;;;;;;;2.32;100.00;96374.16;109161;1257;73097;-63
2023/12/21 11:59:27;;;;;;;9.90;3.80;;;;;;;2.32;100.00;96363.13;109081;1257;66630;-61
2023/12/21 12:02:16;;;;;;;8.80;4.00;;;;;;;2.32;100.00;96348.44;109009;1257;71922;-65
2023/12/21 12:05:05;;;;;;;10.00;3.80;;;;;;;2.32;100.00;96334.58;106038;1257;1003171;-61
2023/12/21 12:07:54;;;;;;;7.80;3.50;;;;;;;2.31;100.00;96324.19;109166;1257;57828;-64
2023/12/21 12:10:42;;;;;;;10.10;4.00;;;;;;;2.32;100.00;96296.94;109042;1257;73365;-62
2023/12/21 12:13:31;;;;;;;7.30;2.80;;;;;;;2.35;100.00;96283.04;109001;1257;67655;-63
2023/12/21 12:16:20;;;;;;;7.70;2.70;;;;;;;2.38;100.00;96273.80;109013;1257;73616;-63
2023/12/21 12:19:12;;;;;;;8.20;3.20;;;;;;;2.38;100.00;96269.75;109001;1257;59694;-61
2023/12/21 12:22:02;;;;;;;7.50;2.70;;;;;;;2.44;100.00;96247.14;109069;1257;59108;-62
2023/12/21 12:24:51;;;;;;;7.50;2.90;;;;;;;2.47;100.00;96222.08;109140;1258;72072;-62
2023/12/21 12:27:39;;;;;;;7.20;2.90;;;;;;;2.50;100.00;96207.58;108892;1257;69076;-63
2023/12/21 12:30:27;;;;;;;9.20;3.30;;;;;;;2.53;100.00;96192.28;108941;1257;73866;-61
2023/12/21 12:33:14;;;;;;;7.20;2.80;;;;;;;2.55;100.00;96179.23;109014;1257;57347;-62
2023/12/21 12:36:09;;;;;;;11.20;3.60;;;;;;;2.58;100.00;96162.05;109037;1257;61219;-64
2023/12/21 12:38:58;;;;;;;8.40;3.20;;;;;;;2.60;100.00;96147.73;109114;1257;71840;-62
2023/12/21 12:41:46;;;;;;;7.80;3.30;;;;;;;2.65;100.00;96132.05;108693;1263;66353;-62
2023/12/21 12:44:35;;;;;;;8.70;3.30;;;;;;;2.67;100.00;96112.69;108799;1263;71286;-61
2023/12/21 12:47:23;;;;;;;7.60;3.10;;;;;;;2.69;100.00;96097.45;108821;1262;57413;-61
2023/12/21 12:50:11;;;;;;;7.20;2.90;;;;;;;2.73;100.00;96079.81;108842;1262;61549;-61
2023/12/21 12:53:02;;;;;;;8.90;3.00;;;;;;;2.76;100.00;96069.41;108900;1262;71995;-62
2023/12/21 12:55:55;;;;;;;8.40;3.20;;;;;;;2.80;100.00;96055.69;108611;1263;68128;-62
2023/12/21 12:58:43;;;;;;;8.10;2.90;;;;;;;2.83;100.00;96041.98;108819;1262;72670;-61
2023/12/21 13:01:45;;;;;;;9.10;2.90;;;;;;;2.87;100.00;96023.88;108710;1265;58497;-62
2023/12/21 13:04:33;;;;;;;9.50;3.50;;;;;;;2.92;100.00;96013.91;108779;1263;60133;-62